Time;durP1;ratioP1;P1;durP2;ratioP2;P2;SDS_P1;SDS_P2;PMS_P1;PMS_P2;Temp;Humidity;BMP_temperature;BMP_pressure;BME280_temperature;BME280_humidity;BME280_pressure;Samples;Min_cycle;Max_cycle;Signal;HPM_P1;HPM_P2
2021/05/01 00:00:31;;;;;;;9.18;8.15;;;;;;;13.95;74.57;98986.98;1706712;82;21483;-40
2021/05/01 00:02:59;;;;;;;10.18;8.03;;;;;;;13.98;74.38;98982.13;1734179;82;21283;-40
2021/05/01 00:05:27;;;;;;;10.35;7.70;;;;;;;14.03;74.13;98988.55;1723486;82;21155;-40
2021/05/01 00:07:56;;;;;;;10.18;7.55;;;;;;;14.06;73.86;98989.12;1704879;84;21155;-41
2021/05/01 00:10:25;;;;;;;9.33;8.13;;;;;;;14.09;73.49;98988.32;1729025;82;21159;-41
2021/05/01 00:12:53;;;;;;;9.23;7.23;;;;;;;14.03;73.38;98984.45;1705873;82;21211;-40
2021/05/01 00:15:21;;;;;;;8.10;6.80;;;;;;;13.99;73.17;98989.72;1704882;84;21200;-40
2021/05/01 00:17:49;;;;;;;8.23;6.60;;;;;;;13.96;72.76;98990.48;1705209;82;21454;-40
2021/05/01 00:20:19;;;;;;;10.57;7.20;;;;;;;13.95;72.34;98991.06;1719678;82;21446;-41
2021/05/01 00:22:47;;;;;;;9.33;7.70;;;;;;;13.99;72.10;99000.01;1704815;84;21430;-41
2021/05/01 00:25:15;;;;;;;8.30;6.67;;;;;;;13.99;71.98;98999.26;1705117;82;21215;-41
2021/05/01 00:27:43;;;;;;;8.73;6.25;;;;;;;13.97;71.88;99001.58;1709499;82;21242;-40
2021/05/01 00:30:13;;;;;;;7.95;6.90;;;;;;;13.93;71.79;99002.37;1707320;83;21182;-40
2021/05/01 00:32:41;;;;;;;7.87;6.67;;;;;;;13.90;71.66;99003.72;1734139;82;21115;-40
2021/05/01 00:35:10;;;;;;;7.67;6.67;;;;;;;13.90;71.58;99006.44;1727328;82;21134;-41
2021/05/01 00:37:38;;;;;;;8.30;6.42;;;;;;;13.93;71.23;99005.68;1747981;82;21170;-40
2021/05/01 00:40:08;;;;;;;8.53;7.20;;;;;;;13.91;70.79;99007.42;1718798;82;21392;-41
2021/05/01 00:42:35;;;;;;;7.90;6.67;;;;;;;13.86;70.78;99002.95;1719545;82;21190;-40
2021/05/01 00:45:05;;;;;;;8.75;7.22;;;;;;;13.82;70.76;99004.89;1718438;82;21519;-40
2021/05/01 00:47:34;;;;;;;9.28;6.67;;;;;;;13.77;70.58;99009.38;1738252;82;21222;-40
2021/05/01 00:50:03;;;;;;;8.38;7.08;;;;;;;13.72;70.41;99007.03;1740205;82;21626;-41
2021/05/01 00:52:32;;;;;;;8.45;6.42;;;;;;;13.69;70.34;99014.05;1718954;82;23573;-40
2021/05/01 00:55:02;;;;;;;8.83;7.30;;;;;;;13.70;70.12;99012.11;1718498;83;21431;-41
2021/05/01 00:57:30;;;;;;;8.08;6.95;;;;;;;13.66;70.01;99013.44;1718978;82;21150;-41
2021/05/01 00:59:58;;;;;;;9.88;7.40;;;;;;;13.61;70.21;99014.41;1740936;82;21181;-41
2021/05/01 01:02:29;;;;;;;8.15;7.12;;;;;;;13.56;70.15;99014.79;1721217;81;21166;-40
2021/05/01 01:04:57;;;;;;;9.30;7.72;;;;;;;13.49;70.48;99016.36;1724808;82;21417;-40
2021/05/01 01:07:26;;;;;;;9.95;8.30;;;;;;;13.45;70.30;99016.94;1746417;82;21194;-40
2021/05/01 01:09:55;;;;;;;10.20;7.05;;;;;;;13.43;70.53;99020.62;1734722;82;21242;-41
2021/05/01 01:12:23;;;;;;;9.40;7.45;;;;;;;13.43;70.53;99020.62;1718973;82;21673;-40
2021/05/01 01:14:52;;;;;;;7.95;6.72;;;;;;;13.42;69.85;99021.00;1718246;83;21119;-41
2021/05/01 01:17:19;;;;;;;10.08;6.53;;;;;;;13.36;69.93;99028.76;1718695;82;22280;-40
2021/05/01 01:19:48;;;;;;;7.92;6.58;;;;;;;13.32;70.03;99026.61;1721518;82;21459;-40
2021/05/01 01:22:17;;;;;;;8.20;6.10;;;;;;;13.26;69.79;99032.27;1721283;82;21203;-41
2021/05/01 01:24:45;;;;;;;6.75;5.95;;;;;;;13.19;69.74;99032.80;1718157;83;21132;-40
2021/05/01 01:27:13;;;;;;;5.40;4.90;;;;;;;13.17;69.62;99035.91;1718758;82;21186;-41
2021/05/01 01:29:43;;;;;;;7.55;5.03;;;;;;;13.16;69.37;99037.67;1718603;82;22508;-41
2021/05/01 01:32:12;;;;;;;5.80;5.00;;;;;;;13.16;69.43;99037.67;1713687;82;21202;-41
2021/05/01 01:34:42;;;;;;;6.58;5.00;;;;;;;13.12;69.21;99044.44;1716496;82;21191;-41
2021/05/01 01:37:11;;;;;;;7.20;5.75;;;;;;;13.07;69.19;99044.78;1712714;83;21169;-41
2021/05/01 01:39:42;;;;;;;7.85;6.95;;;;;;;13.01;69.36;99051.77;1715959;81;21043;-41
2021/05/01 01:42:12;;;;;;;7.28;6.25;;;;;;;12.95;69.55;99050.58;1741415;80;21382;-40
2021/05/01 01:44:40;;;;;;;7.53;5.50;;;;;;;12.90;69.72;99056.37;1713986;82;21194;-40
2021/05/01 01:47:08;;;;;;;6.37;5.62;;;;;;;12.90;69.64;99053.08;1721252;82;21853;-40
2021/05/01 01:49:39;;;;;;;5.92;5.35;;;;;;;12.88;69.68;99060.83;1727789;81;21147;-41
2021/05/01 01:52:07;;;;;;;6.87;5.60;;;;;;;12.85;69.54;99066.27;1741821;82;21586;-40
2021/05/01 01:54:35;;;;;;;7.20;6.10;;;;;;;12.81;69.56;99068.20;1732139;82;21190;-40
2021/05/01 01:57:05;;;;;;;7.75;6.28;;;;;;;12.76;69.71;99071.27;1712800;82;21104;-40
2021/05/01 01:59:33;;;;;;;;;;;;;;;12.70;69.83;99071.43;1715624;82;21612;-40
2021/05/01 02:02:01;;;;;;;5.05;4.42;;;;;;;12.66;69.46;99076.86;1734598;82;20268;-41
2021/05/01 02:04:29;;;;;;;6.85;4.05;;;;;;;12.59;69.34;99080.88;1715710;82;21162;-40
2021/05/01 02:06:57;;;;;;;16.37;4.17;;;;;;;12.59;69.12;99082.23;1712929;82;21632;-41
2021/05/01 02:09:27;;;;;;;38.08;4.25;;;;;;;12.56;69.12;99082.43;1712711;83;20985;-40
2021/05/01 02:11:55;;;;;;;54.65;4.42;;;;;;;12.52;69.30;99080.27;1726921;82;21217;-40
2021/05/01 02:14:23;;;;;;;26.70;3.70;;;;;;;12.47;69.49;99083.34;1720905;82;21488;-40
2021/05/01 02:16:51;;;;;;;19.30;3.05;;;;;;;12.41;69.61;99091.65;1716166;82;21178;-41
2021/05/01 02:19:19;;;;;;;16.48;4.35;;;;;;;12.31;69.43;99096.42;1742391;82;22318;-40
2021/05/01 02:21:47;;;;;;;68.45;6.03;;;;;;;12.20;69.77;99094.19;1716837;82;21438;-41
2021/05/01 02:24:15;;;;;;;94.25;6.12;;;;;;;12.09;70.62;99091.98;1731011;82;21080;-40
2021/05/01 02:26:44;;;;;;;34.83;5.05;;;;;;;12.01;71.24;99088.41;1715167;82;21179;-40
2021/05/01 02:29:12;;;;;;;14.75;6.00;;;;;;;11.93;71.66;99098.23;1739116;82;21420;-41
2021/05/01 02:31:41;;;;;;;15.28;5.35;;;;;;;11.93;72.02;99098.23;1723994;81;21391;-40
2021/05/01 02:34:09;;;;;;;17.85;5.85;;;;;;;11.95;72.16;99101.37;1721664;82;21171;-40
2021/05/01 02:36:38;;;;;;;7.55;4.35;;;;;;;11.99;72.49;99102.18;1723992;82;21036;-40
2021/05/01 02:39:07;;;;;;;8.25;4.85;;;;;;;12.01;72.31;99099.86;1725451;82;21159;-40
2021/05/01 02:41:35;;;;;;;9.63;5.33;;;;;;;12.03;71.65;99100.27;1732038;82;21115;-40
2021/05/01 02:44:04;;;;;;;9.08;6.08;;;;;;;12.03;71.08;99099.70;1712291;82;21502;-41
2021/05/01 02:46:32;;;;;;;9.98;6.33;;;;;;;12.02;70.75;99102.78;1724466;82;21183;-41
2021/05/01 02:49:00;;;;;;;19.42;5.78;;;;;;;12.03;70.79;99108.42;1706790;82;21211;-41
2021/05/01 02:51:28;;;;;;;30.40;5.97;;;;;;;12.05;70.66;99104.77;1701756;82;21160;-40
2021/05/01 02:53:56;;;;;;;60.45;4.95;;;;;;;12.08;70.76;99112.16;1657863;85;21214;-40
2021/05/01 02:56:24;;;;;;;46.42;4.50;;;;;;;12.09;70.72;99118.59;1666163;84;21397;-40
2021/05/01 02:58:52;;;;;;;12.25;4.55;;;;;;;12.11;70.71;99110.03;1666732;84;21187;-40
2021/05/01 03:01:20;;;;;;;37.88;3.83;;;;;;;12.09;70.61;99113.16;1704738;82;21163;-41
2021/05/01 03:03:48;;;;;;;16.57;3.60;;;;;;;12.08;70.43;99120.31;1704589;84;21190;-40
2021/05/01 03:06:16;;;;;;;8.68;3.42;;;;;;;12.06;70.32;99122.03;1704778;83;21179;-40
2021/05/01 03:08:44;;;;;;;6.50;3.30;;;;;;;12.09;70.32;99119.95;1704693;82;22235;-40
2021/05/01 03:11:12;;;;;;;5.15;3.45;;;;;;;12.11;70.36;99127.70;1730220;82;21179;-40
2021/05/01 03:13:40;;;;;;;3.22;2.95;;;;;;;12.12;70.20;99130.63;1734108;82;20997;-40
2021/05/01 03:16:09;;;;;;;4.65;3.50;;;;;;;12.11;70.06;99133.92;1734103;82;21132;-40
2021/05/01 03:18:37;;;;;;;7.28;3.70;;;;;;;12.09;70.07;99130.81;1733456;82;21183;-40
2021/05/01 03:21:05;;;;;;;4.20;3.77;;;;;;;12.09;70.17;99140.33;1725337;82;21746;-40
2021/05/01 03:23:33;;;;;;;6.50;3.72;;;;;;;12.10;70.35;99144.58;1731514;82;21218;-40
2021/05/01 03:26:01;;;;;;;52.13;4.83;;;;;;;12.15;70.29;99144.23;1714731;82;21219;-40
2021/05/01 03:28:29;;;;;;;39.18;4.42;;;;;;;12.21;70.44;99146.03;1704761;82;21649;-40
2021/05/01 03:30:58;;;;;;;29.57;4.40;;;;;;;12.19;70.79;99148.37;1705093;82;21163;-41
2021/05/01 03:33:28;;;;;;;44.20;4.40;;;;;;;12.18;71.14;99147.59;1712692;82;21387;-40
2021/05/01 03:35:57;;;;;;;12.40;4.40;;;;;;;12.21;71.31;99147.39;1720840;81;21799;-40
2021/05/01 03:38:25;;;;;;;6.97;4.45;;;;;;;12.26;71.35;99152.49;1721492;82;21155;-41
2021/05/01 03:40:53;;;;;;;20.75;3.90;;;;;;;12.34;71.31;99154.13;1706149;82;21183;-40
2021/05/01 03:43:21;;;;;;;21.87;5.28;;;;;;;12.41;71.23;99165.05;1726354;82;21136;-40
2021/05/01 03:45:49;;;;;;;20.00;5.67;;;;;;;12.42;71.17;99161.75;1715830;82;21641;-40
2021/05/01 03:48:17;;;;;;;9.25;6.30;;;;;;;12.36;71.22;99168.11;1704532;82;21191;-40
2021/05/01 03:50:45;;;;;;;8.30;7.40;;;;;;;12.29;71.82;99174.08;1705495;82;21748;-41
2021/05/01 03:53:14;;;;;;;10.93;7.50;;;;;;;12.28;72.40;99173.88;1704838;82;21645;-41
2021/05/01 03:55:42;;;;;;;9.35;7.85;;;;;;;12.31;72.84;99176.61;1724011;82;21163;-41
2021/05/01 03:58:10;;;;;;;12.15;9.63;;;;;;;12.31;73.03;99186.13;1715616;82;21276;-40
2021/05/01 04:00:38;;;;;;;11.68;10.48;;;;;;;12.29;73.65;99189.81;1730640;82;21057;-40
2021/05/01 04:03:06;;;;;;;10.95;9.80;;;;;;;12.30;74.13;99194.07;1718410;82;21602;-41
2021/05/01 04:05:34;;;;;;;10.55;9.40;;;;;;;12.37;74.30;99192.00;1714145;82;21183;-40
2021/05/01 04:08:03;;;;;;;12.95;10.13;;;;;;;12.47;74.41;99192.68;1704918;82;21163;-40
2021/05/01 04:10:30;;;;;;;15.20;11.43;;;;;;;12.55;74.50;99191.57;1709322;82;21367;-41
2021/05/01 04:12:58;;;;;;;14.78;11.15;;;;;;;12.57;74.59;99195.49;1698582;84;21178;-40
2021/05/01 04:15:28;;;;;;;14.63;10.88;;;;;;;12.60;74.76;99193.37;1695586;82;21162;-40
2021/05/01 04:17:56;;;;;;;16.27;11.18;;;;;;;12.62;74.82;99191.06;1718586;82;21167;-40
2021/05/01 04:20:24;;;;;;;12.78;10.82;;;;;;;12.70;74.79;99186.45;1710938;82;21171;-40
2021/05/01 04:22:52;;;;;;;14.18;11.85;;;;;;;12.82;74.76;99192.18;1732975;82;21283;-40
2021/05/01 04:25:20;;;;;;;16.40;11.95;;;;;;;12.88;74.73;99193.36;1713109;82;21182;-40
2021/05/01 04:27:48;;;;;;;16.50;12.63;;;;;;;12.93;74.85;99191.65;1731823;82;21115;-40
2021/05/01 04:30:18;;;;;;;13.62;11.65;;;;;;;12.96;74.95;99193.06;1731258;82;21191;-40
2021/05/01 04:32:45;;;;;;;17.12;12.53;;;;;;;13.08;74.91;99198.17;1712682;82;21215;-40
2021/05/01 04:35:14;;;;;;;15.55;12.18;;;;;;;13.19;74.95;99196.91;1716719;82;21282;-40
2021/05/01 04:37:42;;;;;;;16.82;13.58;;;;;;;13.26;75.03;99195.60;1720833;82;21155;-40
2021/05/01 04:40:12;;;;;;;14.20;12.03;;;;;;;13.28;75.15;99197.34;1687268;84;21083;-40
2021/05/01 04:42:46;;;;;;;18.55;12.93;;;;;;;13.36;75.14;99202.27;1670956;85;21178;-41
2021/05/01 04:45:12;;;;;;;17.20;14.25;;;;;;;13.43;75.14;99198.20;1670852;85;21191;-41
2021/05/01 04:47:40;;;;;;;18.87;13.10;;;;;;;13.52;75.26;99200.56;1709280;82;21613;-40
2021/05/01 04:50:11;;;;;;;16.97;14.55;;;;;;;13.60;75.34;99206.27;1739585;82;21047;-40
2021/05/01 04:52:39;;;;;;;19.37;13.65;;;;;;;13.67;75.48;99209.00;1727597;82;21215;-40
2021/05/01 04:55:13;;;;;;;18.10;13.95;;;;;;;13.75;74.56;99197.73;1704825;82;21171;-40
2021/05/01 04:57:43;;;;;;;16.12;13.32;;;;;;;13.84;74.33;99202.85;1704922;84;21179;-40
2021/05/01 05:00:13;;;;;;;17.02;13.28;;;;;;;13.96;74.37;99198.39;1704058;82;21444;-41
2021/05/01 05:02:41;;;;;;;17.48;14.50;;;;;;;14.02;73.91;99200.95;1721454;82;21017;-41
2021/05/01 05:05:11;;;;;;;18.10;14.03;;;;;;;14.03;73.79;99197.64;1701022;82;21198;-40
2021/05/01 05:07:40;;;;;;;17.57;14.47;;;;;;;14.04;73.48;99204.05;1715972;82;21167;-41
2021/05/01 05:10:10;;;;;;;18.83;13.97;;;;;;;14.11;72.93;99208.17;1715024;82;21148;-41
2021/05/01 05:12:38;;;;;;;16.87;13.72;;;;;;;14.18;72.77;99208.20;1720127;82;22316;-41
2021/05/01 05:15:08;;;;;;;15.63;12.82;;;;;;;14.26;72.62;99211.13;1718972;81;21561;-41
2021/05/01 05:17:36;;;;;;;16.10;13.45;;;;;;;14.33;72.49;99204.30;1719847;82;21207;-41
2021/05/01 05:20:06;;;;;;;17.40;13.48;;;;;;;14.42;72.34;99211.37;1712644;82;21199;-42
2021/05/01 05:22:34;;;;;;;16.07;13.38;;;;;;;14.53;71.70;99199.28;1730666;81;21163;-40
2021/05/01 05:25:03;;;;;;;15.28;12.98;;;;;;;14.61;71.34;99204.17;1711581;82;22151;-40
2021/05/01 05:27:31;;;;;;;18.42;13.98;;;;;;;14.59;71.29;99203.77;1722361;82;21147;-40
2021/05/01 05:30:00;;;;;;;16.40;13.20;;;;;;;14.53;71.56;99196.55;1714607;82;21147;-40
2021/05/01 05:32:28;;;;;;;14.90;12.25;;;;;;;14.68;71.62;99208.25;1725441;82;22517;-40
2021/05/01 05:34:56;;;;;;;17.42;12.28;;;;;;;14.76;71.02;99209.21;1719742;82;21170;-40
2021/05/01 05:37:24;;;;;;;18.90;14.05;;;;;;;14.83;70.90;99204.34;1731516;82;21275;-41
2021/05/01 05:39:53;;;;;;;15.70;12.98;;;;;;;14.95;70.99;99214.88;1737942;82;21203;-40
2021/05/01 05:42:23;;;;;;;16.60;13.50;;;;;;;15.08;70.83;99212.51;1731479;82;21503;-40
2021/05/01 05:44:51;;;;;;;14.50;12.90;;;;;;;15.17;70.53;99218.34;1734087;82;21657;-41
2021/05/01 05:47:20;;;;;;;15.80;13.20;;;;;;;15.25;69.93;99213.66;1736156;82;21889;-40
2021/05/01 05:49:48;;;;;;;14.55;12.70;;;;;;;15.30;69.54;99213.25;1730773;82;21404;-41
2021/05/01 05:52:16;;;;;;;17.57;12.75;;;;;;;15.41;69.86;99219.45;1727728;82;21238;-40
2021/05/01 05:54:44;;;;;;;15.45;13.78;;;;;;;15.53;69.44;99219.06;1745309;82;21163;-41
2021/05/01 05:57:12;;;;;;;16.23;12.00;;;;;;;15.63;69.30;99220.40;1721535;82;21211;-40
2021/05/01 05:59:43;;;;;;;15.30;12.70;;;;;;;15.74;68.83;99220.34;1724571;82;21142;-40
2021/05/01 06:02:16;;;;;;;16.03;12.37;;;;;;;15.79;68.56;99217.19;1724971;82;21498;-40
2021/05/01 06:04:55;;;;;;;16.02;11.57;;;;;;;15.98;68.35;99223.54;1720605;82;21665;-40
2021/05/01 06:07:33;;;;;;;14.05;12.55;;;;;;;16.09;66.96;99216.06;1724307;82;21137;-40
2021/05/01 06:10:06;;;;;;;14.13;11.83;;;;;;;16.15;66.64;99214.28;1718617;82;21185;-41
2021/05/01 06:12:34;;;;;;;15.23;12.13;;;;;;;16.18;65.69;99216.20;1718834;82;21158;-40
2021/05/01 06:15:15;;;;;;;16.50;11.83;;;;;;;16.25;66.28;99216.17;1726130;82;21356;-41
2021/05/01 06:17:44;;;;;;;16.70;11.12;;;;;;;16.35;65.83;99220.80;1723019;82;21042;-41
2021/05/01 06:20:14;;;;;;;19.40;11.83;;;;;;;16.44;64.95;99221.91;1732877;82;21154;-41
2021/05/01 06:22:42;;;;;;;12.88;10.90;;;;;;;16.55;64.51;99223.79;1729713;82;21186;-41
2021/05/01 06:25:12;;;;;;;15.63;11.38;;;;;;;16.65;64.76;99224.33;1725704;82;21677;-41
2021/05/01 06:27:40;;;;;;;11.83;10.55;;;;;;;16.78;63.96;99223.44;1728041;82;21187;-41
2021/05/01 06:30:10;;;;;;;12.45;10.00;;;;;;;16.91;63.06;99225.86;1723529;82;21194;-41
2021/05/01 06:32:39;;;;;;;13.32;11.08;;;;;;;17.03;62.21;99228.70;1724541;81;21455;-41
2021/05/01 06:35:09;;;;;;;12.65;10.90;;;;;;;17.16;62.55;99220.14;1718885;82;21626;-42
2021/05/01 06:37:38;;;;;;;13.23;11.33;;;;;;;17.21;62.70;99227.14;1727876;82;21441;-41
2021/05/01 06:40:14;;;;;;;13.75;10.60;;;;;;;17.24;61.77;99220.84;1720292;82;21366;-41
2021/05/01 06:42:44;;;;;;;13.55;10.35;;;;;;;17.29;61.71;99220.39;1657727;85;21226;-41
2021/05/01 06:45:16;;;;;;;11.93;10.23;;;;;;;17.37;60.63;99224.05;1648903;85;21522;-41
2021/05/01 06:47:54;;;;;;;13.30;10.88;;;;;;;17.47;60.07;99221.59;1673528;84;21170;-41
2021/05/01 06:50:26;;;;;;;13.50;10.93;;;;;;;17.56;60.18;99220.51;1680532;84;21159;-41
2021/05/01 06:52:57;;;;;;;13.72;11.38;;;;;;;17.66;60.35;99223.75;1673999;84;21206;-41
2021/05/01 06:55:28;;;;;;;15.50;12.20;;;;;;;17.75;59.71;99227.55;1681167;84;21190;-41
2021/05/01 06:57:56;;;;;;;14.30;11.80;;;;;;;17.78;58.77;99231.42;1680590;84;21151;-41
2021/05/01 07:00:25;;;;;;;14.83;12.40;;;;;;;17.81;59.87;99239.59;1670977;84;21681;-41
2021/05/01 07:03:05;;;;;;;16.23;12.20;;;;;;;17.87;59.41;99235.81;1671416;84;21194;-41
2021/05/01 07:05:34;;;;;;;15.40;11.65;;;;;;;17.95;59.70;99232.41;1672994;84;22308;-41
2021/05/01 07:08:02;;;;;;;14.50;11.80;;;;;;;18.04;59.08;99232.67;1685774;84;21186;-41
2021/05/01 07:10:31;;;;;;;13.88;10.23;;;;;;;18.16;58.34;99229.35;1666804;84;21159;-41
2021/05/01 07:13:00;;;;;;;13.62;9.85;;;;;;;18.25;57.64;99226.88;1668199;84;21685;-41
2021/05/01 07:15:30;;;;;;;11.70;8.85;;;;;;;18.35;56.77;99229.31;1684702;84;21174;-41
2021/05/01 07:17:58;;;;;;;11.30;8.08;;;;;;;18.46;55.78;99225.20;1693576;84;22228;-41
2021/05/01 07:20:26;;;;;;;11.73;9.48;;;;;;;18.58;55.11;99226.03;1665531;86;21481;-41
2021/05/01 07:22:54;;;;;;;9.88;8.13;;;;;;;18.70;55.13;99219.75;1666406;86;21141;-41
2021/05/01 07:25:24;;;;;;;10.95;7.53;;;;;;;18.81;54.75;99222.52;1665000;85;21232;-41
2021/05/01 07:28:04;;;;;;;8.85;7.92;;;;;;;18.91;54.20;99216.66;1659755;86;21202;-41
2021/05/01 07:30:38;;;;;;;9.00;6.67;;;;;;;19.09;53.21;99218.50;1645257;86;21381;-41
2021/05/01 07:33:34;;;;;;;9.68;6.92;;;;;;;19.22;50.70;99218.68;1642378;85;21207;-41
2021/05/01 07:36:08;;;;;;;6.75;6.05;;;;;;;19.32;49.97;99217.68;1662678;84;21182;-41
2021/05/01 07:38:36;;;;;;;9.18;5.90;;;;;;;19.44;46.99;99217.10;1647901;85;21197;-41
2021/05/01 07:41:06;;;;;;;8.28;6.12;;;;;;;19.59;48.15;99228.59;1691142;84;21257;-41
2021/05/01 07:43:33;;;;;;;10.30;7.70;;;;;;;19.70;44.55;99229.17;1666594;84;22142;-41
2021/05/01 07:46:06;;;;;;;9.15;7.22;;;;;;;19.78;47.71;99230.57;1666119;84;21219;-41
2021/05/01 07:48:36;;;;;;;8.85;7.30;;;;;;;19.86;46.39;99235.49;1678155;84;21250;-41
2021/05/01 07:51:05;;;;;;;11.20;8.33;;;;;;;19.96;47.31;99237.84;1667076;84;22224;-41
2021/05/01 07:53:34;;;;;;;10.20;7.30;;;;;;;20.07;46.79;99243.12;1699404;84;21791;-41
2021/05/01 07:56:02;;;;;;;8.10;5.58;;;;;;;20.13;45.34;99237.30;1670976;84;21385;-41
2021/05/01 07:58:30;;;;;;;7.60;6.37;;;;;;;20.23;41.95;99232.17;1677869;84;21661;-41
2021/05/01 08:00:58;;;;;;;7.10;5.50;;;;;;;20.36;41.71;99227.56;1683086;84;21182;-42
2021/05/01 08:03:26;;;;;;;7.50;5.45;;;;;;;20.47;41.00;99224.58;1707129;83;21183;-41
2021/05/01 08:05:54;;;;;;;9.48;6.03;;;;;;;20.61;41.23;99228.37;1703345;84;21411;-41
2021/05/01 08:08:23;;;;;;;6.28;5.33;;;;;;;20.73;40.84;99229.82;1706373;84;21380;-41
2021/05/01 08:10:51;;;;;;;8.88;5.47;;;;;;;20.82;41.13;99229.20;1706239;84;21643;-41
2021/05/01 08:13:19;;;;;;;6.03;5.10;;;;;;;20.87;40.79;99234.20;1676886;83;21192;-41
2021/05/01 08:15:47;;;;;;;6.40;5.15;;;;;;;20.92;40.44;99229.55;1691201;84;21223;-41
2021/05/01 08:18:15;;;;;;;7.75;5.25;;;;;;;21.00;40.52;99242.56;1666471;84;21189;-42
2021/05/01 08:20:44;;;;;;;5.80;4.53;;;;;;;21.09;41.24;99248.23;1668531;84;21405;-41
2021/05/01 08:23:12;;;;;;;6.35;4.58;;;;;;;21.17;39.07;99249.02;1669042;84;21261;-41
2021/05/01 08:25:43;;;;;;;5.20;4.35;;;;;;;21.15;39.50;99247.31;1666513;84;21196;-42
2021/05/01 08:28:12;;;;;;;6.50;4.42;;;;;;;21.14;38.85;99245.77;1666864;84;21190;-42
2021/05/01 08:30:40;;;;;;;7.17;5.03;;;;;;;21.18;38.55;99245.06;1685159;82;21115;-41
2021/05/01 08:33:08;;;;;;;6.75;4.28;;;;;;;21.27;38.76;99245.04;1680985;84;22267;-41
2021/05/01 08:35:36;;;;;;;6.53;4.33;;;;;;;21.32;37.65;99245.89;1657575;85;21629;-41
2021/05/01 08:38:05;;;;;;;5.05;3.60;;;;;;;21.36;37.52;99245.19;1665789;85;21190;-42
2021/05/01 08:40:35;;;;;;;5.25;3.85;;;;;;;21.42;32.53;99248.38;1655172;85;21661;-41
2021/05/01 08:43:04;;;;;;;5.10;3.77;;;;;;;21.42;31.51;99246.22;1696625;84;21159;-42
2021/05/01 08:45:32;;;;;;;6.28;3.85;;;;;;;21.43;32.15;99253.28;1704362;83;21278;-41
2021/05/01 08:48:01;;;;;;;4.65;3.98;;;;;;;21.51;33.60;99261.53;1704406;83;21039;-41
2021/05/01 08:50:37;;;;;;;7.40;4.80;;;;;;;21.62;35.40;99256.50;1704722;84;21192;-42
2021/05/01 08:53:06;;;;;;;5.42;4.30;;;;;;;21.66;35.49;99266.23;1700215;83;21222;-42
2021/05/01 08:55:38;;;;;;;4.58;3.83;;;;;;;21.75;35.94;99268.34;1701606;83;21194;-42
2021/05/01 08:58:09;;;;;;;4.95;3.87;;;;;;;21.85;33.39;99267.88;1698978;84;21384;-42
2021/05/01 09:00:42;;;;;;;5.40;3.72;;;;;;;21.81;32.76;99267.98;1700882;83;21653;-41
2021/05/01 09:03:12;;;;;;;4.72;3.45;;;;;;;21.68;33.32;99266.58;1701214;83;21178;-42
2021/05/01 09:05:41;;;;;;;5.40;4.00;;;;;;;21.67;34.44;99265.62;1702155;84;21131;-41
2021/05/01 09:08:10;;;;;;;5.80;3.33;;;;;;;21.60;32.32;99263.05;1676258;84;21142;-41
2021/05/01 09:10:47;;;;;;;3.85;2.95;;;;;;;21.52;32.94;99267.22;1666037;85;21383;-42
2021/05/01 09:13:22;;;;;;;4.08;3.58;;;;;;;21.50;32.13;99261.35;1665870;85;21657;-41
2021/05/01 09:16:08;;;;;;;4.53;3.70;;;;;;;21.55;32.74;99258.06;1700516;83;21169;-41
2021/05/01 09:18:55;;;;;;;6.10;3.62;;;;;;;21.64;32.74;99252.08;1699080;84;21609;-42
2021/05/01 09:21:27;;;;;;;5.87;3.70;;;;;;;21.76;32.32;99254.73;1701603;83;21187;-42
2021/05/01 09:23:55;;;;;;;5.55;4.10;;;;;;;21.88;32.13;99248.45;1703455;83;21612;-42
2021/05/01 09:26:41;;;;;;;4.28;3.45;;;;;;;21.97;33.10;99244.50;1702759;83;21181;-42
2021/05/01 09:29:11;;;;;;;6.40;4.00;;;;;;;22.06;33.51;99246.00;1706509;84;21187;-42
2021/05/01 09:31:48;;;;;;;3.87;3.20;;;;;;;22.20;34.18;99248.16;1685257;83;21159;-41
2021/05/01 09:34:15;;;;;;;4.10;3.27;;;;;;;22.35;33.18;99248.67;1707347;82;21189;-41
2021/05/01 09:36:45;;;;;;;4.65;3.52;;;;;;;22.44;32.45;99246.63;1717070;82;23590;-42
2021/05/01 09:39:16;;;;;;;6.28;4.30;;;;;;;22.45;32.90;99248.18;1690554;83;21649;-42
2021/05/01 09:41:46;;;;;;;5.95;4.03;;;;;;;22.47;33.36;99247.89;1717669;83;21194;-41
2021/05/01 09:44:18;;;;;;;7.30;3.52;;;;;;;22.46;32.83;99242.83;1717297;83;21480;-41
2021/05/01 09:49:36;;;;;;;4.33;3.47;;;;;;;22.63;31.80;99240.70;1810953;77;22737;-41
2021/05/01 09:52:10;;;;;;;4.87;3.55;;;;;;;22.66;30.71;99242.57;1788888;79;21334;-41
2021/05/01 09:54:43;;;;;;;4.37;2.98;;;;;;;22.68;30.48;99242.31;1796268;79;21401;-41
2021/05/01 09:57:15;;;;;;;5.70;3.50;;;;;;;22.75;32.09;99247.62;1782910;79;22068;-41
2021/05/01 09:59:48;;;;;;;5.12;3.45;;;;;;;22.79;30.20;99240.01;1800188;77;21056;-42
2021/05/01 10:02:22;;;;;;;5.65;3.50;;;;;;;22.88;30.39;99242.86;1779476;80;21170;-42
2021/05/01 10:05:07;;;;;;;5.42;3.62;;;;;;;23.03;30.20;99242.39;1810890;79;21013;-43
2021/05/01 10:07:37;;;;;;;3.50;2.90;;;;;;;23.22;28.93;99230.28;1739221;82;21627;-42
2021/05/01 10:10:06;;;;;;;3.25;2.62;;;;;;;23.44;28.75;99231.06;1747019;80;20992;-42
2021/05/01 10:12:36;;;;;;;3.72;2.58;;;;;;;23.53;26.66;99231.80;1775240;80;21000;-42
2021/05/01 10:15:24;;;;;;;5.17;2.83;;;;;;;23.54;26.58;99229.94;1777361;80;21087;-42
2021/05/01 10:17:53;;;;;;;3.90;2.80;;;;;;;23.64;26.28;99231.55;1703771;80;21541;-42
2021/05/01 10:20:22;;;;;;;4.25;3.42;;;;;;;23.78;28.77;99236.57;1779580;80;21199;-42
2021/05/01 10:22:50;;;;;;;4.47;2.90;;;;;;;23.85;28.35;99237.55;1722939;80;21208;-42
2021/05/01 10:25:21;;;;;;;3.50;3.15;;;;;;;23.88;28.24;99235.23;1771077;80;21458;-42
2021/05/01 10:28:01;;;;;;;5.35;3.00;;;;;;;24.09;26.67;99238.00;1748313;82;21109;-42
2021/05/01 10:33:34;;;;;;;4.40;2.42;;;;;;;24.63;25.34;99232.55;1844110;76;22708;-42
2021/05/01 10:36:25;;;;;;;5.30;2.90;;;;;;;24.74;25.71;99230.73;1797070;78;21169;-43
2021/05/01 10:39:06;;;;;;;4.00;2.80;;;;;;;24.76;24.48;99224.11;1801531;79;21260;-42
2021/05/01 10:41:36;;;;;;;4.05;2.30;;;;;;;24.78;24.24;99223.81;1815885;78;20992;-42
2021/05/01 10:44:07;;;;;;;3.60;2.97;;;;;;;24.95;24.29;99216.00;1816067;79;22133;-42
2021/05/01 10:48:55;;;;;;;3.70;2.62;;;;;;;25.43;24.11;99222.05;1779894;79;21865;-42
2021/05/01 10:51:27;;;;;;;4.70;2.85;;;;;;;25.49;23.05;99217.42;1782098;80;21407;-42
2021/05/01 10:54:09;;;;;;;3.90;2.83;;;;;;;25.64;23.92;99212.66;1767106;80;22268;-42
2021/05/01 10:56:43;;;;;;;5.92;3.05;;;;;;;25.83;24.49;99207.22;1767886;80;21716;-42
2021/05/01 10:59:08;;;;;;;4.40;3.17;;;;;;;25.93;24.79;99220.62;1758436;80;21031;-42
2021/05/01 11:01:46;;;;;;;3.60;3.17;;;;;;;25.94;25.41;99218.00;1756144;81;21007;-42
2021/05/01 11:04:20;;;;;;;4.33;3.52;;;;;;;25.90;25.74;99208.30;1755961;81;21494;-42
2021/05/01 11:07:11;;;;;;;3.85;3.10;;;;;;;25.74;26.26;99219.73;1780022;80;23504;-43
2021/05/01 11:09:42;;;;;;;6.92;3.27;;;;;;;25.61;26.01;99217.11;1757180;80;21649;-43
2021/05/01 11:12:14;;;;;;;3.67;3.12;;;;;;;25.50;26.22;99212.64;1784838;80;21558;-42
2021/05/01 11:14:57;;;;;;;5.33;3.33;;;;;;;25.50;27.05;99210.64;1782873;79;21126;-43
2021/05/01 11:17:37;;;;;;;4.47;3.60;;;;;;;25.72;26.54;99217.41;1756390;80;21162;-42
2021/05/01 11:20:08;;;;;;;;;;;;;;;25.85;26.21;99202.72;1757790;81;21227;-43
2021/05/01 11:22:39;;;;;;;3.85;2.90;;;;;;;25.88;26.49;99202.42;1756087;81;20578;-43
2021/05/01 11:25:16;;;;;;;4.42;3.00;;;;;;;25.96;26.53;99211.95;1755875;81;21189;-43
2021/05/01 11:27:53;;;;;;;3.87;3.20;;;;;;;26.20;25.93;99206.47;1808060;78;22322;-43
2021/05/01 11:30:27;;;;;;;4.53;3.20;;;;;;;26.20;24.74;99205.08;1783549;80;21023;-43
2021/05/01 11:32:56;;;;;;;5.10;3.00;;;;;;;26.23;25.16;99204.97;1812205;79;21291;-43
2021/05/01 11:35:26;;;;;;;6.05;2.98;;;;;;;26.31;24.26;99199.21;1793930;78;21048;-43
2021/05/01 11:37:58;;;;;;;5.70;3.02;;;;;;;26.36;25.32;99197.18;1783159;80;21078;-43
2021/05/01 11:40:33;;;;;;;3.85;2.90;;;;;;;26.37;25.54;99152.86;1783271;80;21601;-43
2021/05/01 11:43:01;;;;;;;3.87;2.83;;;;;;;26.91;24.35;99185.00;1783807;78;21031;-43
2021/05/01 11:46:10;;;;;;;3.92;2.80;;;;;;;27.06;25.06;99186.56;1783321;80;22251;-43
2021/05/01 11:48:37;;;;;;;3.40;3.08;;;;;;;27.19;24.51;99184.31;1782766;79;21090;-43
2021/05/01 11:51:06;;;;;;;3.22;2.92;;;;;;;27.23;23.71;99189.08;1782567;80;21652;-43